createdAt,value
2023-02-11T00:00:35.196Z,63.13
2023-02-11T00:03:26.745Z,63.34
2023-02-11T00:06:14.783Z,61.68
2023-02-11T00:09:03.665Z,60.46
2023-02-11T00:11:52.820Z,60.05
2023-02-11T00:14:40.468Z,59.50
2023-02-11T00:17:28.229Z,59.36
2023-02-11T00:20:16.401Z,62.91
2023-02-11T00:23:04.644Z,64.03
2023-02-11T00:25:52.683Z,62.33
2023-02-11T00:28:41.337Z,61.33
2023-02-11T00:31:30.090Z,59.69
2023-02-11T00:34:18.494Z,59.97
2023-02-11T00:37:06.562Z,62.61
2023-02-11T00:39:54.919Z,64.16
2023-02-11T00:42:43.140Z,62.80
2023-02-11T00:45:31.087Z,62.02
2023-02-11T00:48:19.410Z,60.91
2023-02-11T00:51:07.813Z,60.04
2023-02-11T00:53:55.650Z,59.51
2023-02-11T00:56:44.532Z,62.30
2023-02-11T00:59:32.595Z,63.38
2023-02-11T01:02:22.248Z,61.98
2023-02-11T01:05:10.249Z,61.12
2023-02-11T01:07:58.753Z,60.26
2023-02-11T01:10:54.429Z,59.46
2023-02-11T01:13:43.021Z,60.02
2023-02-11T01:16:31.033Z,63.50
2023-02-11T01:19:19.093Z,63.49
2023-02-11T01:22:07.312Z,61.18
2023-02-11T01:24:55.106Z,60.07
2023-02-11T01:27:43.394Z,59.48
2023-02-11T01:30:31.801Z,62.18
2023-02-11T01:33:19.557Z,64.04
2023-02-11T01:36:08.172Z,62.93
2023-02-11T01:38:55.864Z,61.43
2023-02-11T01:41:43.921Z,60.08
2023-02-11T01:44:37.252Z,59.86
2023-02-11T01:47:25.169Z,59.81
2023-02-11T01:50:13.376Z,59.73
2023-02-11T01:53:21.263Z,59.94
2023-02-11T01:56:29.001Z,59.46
2023-02-11T01:59:44.769Z,62.23
2023-02-11T02:02:50.586Z,64.23
2023-02-11T02:06:11.053Z,62.64
2023-02-11T02:09:28.973Z,61.60
2023-02-11T02:12:16.932Z,60.86
2023-02-11T02:15:34.665Z,60.15
2023-02-11T02:19:00.628Z,59.95
2023-02-11T02:22:32.999Z,59.38
2023-02-11T02:25:56.111Z,62.25
2023-02-11T02:29:24.925Z,63.30
2023-02-11T02:32:27.486Z,59.07
2023-02-11T02:36:07.378Z,61.93
2023-02-11T02:39:11.844Z,65.20
2023-02-11T02:41:59.994Z,63.50
2023-02-11T02:44:52.654Z,61.81
2023-02-11T02:47:40.821Z,60.80
2023-02-11T02:50:36.965Z,60.27
2023-02-11T02:54:11.891Z,59.98
2023-02-11T02:57:18.211Z,58.94
2023-02-11T03:00:23.432Z,62.09
2023-02-11T03:03:29.675Z,64.21
2023-02-11T03:06:31.329Z,63.34
2023-02-11T03:09:42.793Z,62.26
2023-02-11T03:12:33.337Z,62.12
2023-02-11T03:15:24.464Z,61.23
2023-02-11T03:18:17.262Z,61.03
2023-02-11T03:21:08.866Z,60.33
2023-02-11T03:24:03.458Z,59.89
2023-02-11T03:26:59.249Z,59.90
2023-02-11T03:30:06.314Z,59.26
2023-02-11T03:33:21.213Z,62.57
2023-02-11T03:36:22.494Z,65.53
2023-02-11T03:39:14.553Z,64.40
2023-02-11T03:42:04.352Z,63.25
2023-02-11T03:45:01.748Z,62.80
2023-02-11T03:47:59.180Z,62.00
2023-02-11T03:50:50.209Z,60.95
2023-02-11T03:53:41.601Z,60.41
2023-02-11T03:56:37.280Z,60.53
2023-02-11T03:59:26.060Z,60.63
2023-02-11T04:02:14.116Z,60.51
2023-02-11T04:05:02.463Z,60.13
2023-02-11T04:07:50.116Z,60.25
2023-02-11T04:10:38.172Z,60.12
2023-02-11T04:13:26.413Z,59.49
2023-02-11T04:16:15.382Z,61.08
2023-02-11T04:19:03.065Z,65.05
2023-02-11T04:21:51.013Z,65.06
2023-02-11T04:24:39.043Z,64.13
2023-02-11T04:27:26.950Z,63.95
2023-02-11T04:30:14.980Z,63.13
2023-02-11T04:33:02.930Z,62.46
2023-02-11T04:35:51.206Z,62.41
2023-02-11T04:38:39.314Z,62.47
2023-02-11T04:41:27.440Z,62.22
2023-02-11T04:44:15.604Z,61.94
2023-02-11T04:47:03.287Z,62.07
2023-02-11T04:49:51.136Z,61.79
2023-02-11T04:52:38.881Z,62.26
2023-02-11T04:55:26.884Z,62.61
2023-02-11T04:58:14.655Z,62.58
2023-02-11T05:01:12.664Z,62.51
2023-02-11T05:04:00.475Z,62.50
2023-02-11T05:06:48.448Z,62.46
2023-02-11T05:09:36.400Z,62.34
2023-02-11T05:12:24.343Z,62.39
2023-02-11T05:15:11.966Z,62.67
2023-02-11T05:17:59.700Z,62.90
2023-02-11T05:20:47.761Z,62.66
2023-02-11T05:23:36.626Z,62.93
2023-02-11T05:26:24.733Z,63.29
2023-02-11T05:29:12.428Z,64.18
2023-02-11T05:32:00.466Z,64.39
2023-02-11T05:34:48.505Z,64.29
2023-02-11T05:37:36.802Z,64.81
2023-02-11T05:40:24.623Z,64.85
2023-02-11T05:43:12.430Z,64.79
2023-02-11T05:46:00.315Z,65.13
2023-02-11T05:48:48.153Z,65.11
2023-02-11T05:51:35.961Z,64.74
2023-02-11T05:54:23.897Z,64.81
2023-02-11T05:57:12.150Z,64.79
2023-02-11T06:00:00.230Z,64.71
2023-02-11T06:02:48.094Z,64.74
2023-02-11T06:05:35.751Z,65.43
2023-02-11T06:08:23.889Z,65.53
2023-02-11T06:11:11.578Z,65.51
2023-02-11T06:13:59.720Z,65.35
2023-02-11T06:16:47.833Z,65.04
2023-02-11T06:19:36.411Z,64.99
2023-02-11T06:22:24.404Z,64.86
2023-02-11T06:25:13.440Z,65.06
2023-02-11T06:28:01.793Z,65.34
2023-02-11T06:30:49.978Z,65.52
2023-02-11T06:33:38.906Z,65.39
2023-02-11T06:36:26.807Z,65.18
2023-02-11T06:39:14.959Z,65.20
2023-02-11T06:42:03.920Z,65.45
2023-02-11T06:44:52.828Z,65.28
2023-02-11T06:47:41.420Z,65.43
2023-02-11T06:50:29.018Z,65.64
2023-02-11T06:53:16.787Z,65.08
2023-02-11T06:56:07.519Z,65.02
2023-02-11T06:58:56.953Z,65.16
2023-02-11T07:01:45.212Z,65.08
2023-02-11T07:04:33.164Z,65.22
2023-02-11T07:07:21.526Z,65.10
2023-02-11T07:10:09.586Z,64.61
2023-02-11T07:12:58.833Z,65.14
2023-02-11T07:15:47.181Z,65.38
2023-02-11T07:18:35.409Z,65.84
2023-02-11T07:21:26.754Z,65.23
2023-02-11T07:24:15.439Z,64.85
2023-02-11T07:27:03.239Z,65.01
2023-02-11T07:29:51.149Z,65.35
2023-02-11T07:32:38.961Z,65.03
2023-02-11T07:35:27.005Z,65.07
2023-02-11T07:38:14.848Z,64.63
2023-02-11T07:41:07.088Z,64.37
2023-02-11T07:43:55.120Z,64.84
2023-02-11T07:46:45.280Z,64.65
2023-02-11T07:49:33.535Z,64.57
2023-02-11T07:52:21.446Z,65.04
2023-02-11T07:55:10.185Z,65.18
2023-02-11T07:57:58.175Z,65.00
2023-02-11T08:00:46.200Z,63.77
2023-02-11T08:03:36.243Z,63.55
2023-02-11T08:06:28.132Z,63.18
2023-02-11T08:09:17.035Z,62.51
2023-02-11T08:12:05.286Z,62.44
2023-02-11T08:14:53.039Z,61.99
2023-02-11T08:17:40.858Z,62.22
2023-02-11T08:20:29.266Z,61.88
2023-02-11T08:23:17.089Z,62.01
2023-02-11T08:26:15.117Z,62.25
2023-02-11T08:29:09.388Z,62.48
2023-02-11T08:31:57.320Z,61.91
2023-02-11T08:34:45.379Z,61.98
2023-02-11T08:37:33.956Z,61.75
2023-02-11T08:40:22.788Z,61.99
2023-02-11T08:43:10.992Z,61.68
2023-02-11T08:46:02.021Z,61.45
2023-02-11T08:48:50.899Z,61.52
2023-02-11T08:51:38.973Z,61.09
2023-02-11T08:54:26.802Z,61.22
2023-02-11T08:57:14.379Z,61.47
2023-02-11T09:00:03.610Z,60.88
2023-02-11T09:02:51.832Z,61.35
2023-02-11T09:05:48.199Z,61.29
2023-02-11T09:08:38.885Z,62.07
2023-02-11T09:11:33.037Z,61.99
2023-02-11T09:14:24.638Z,61.23
2023-02-11T09:17:12.744Z,61.11
2023-02-11T09:20:00.890Z,61.12
2023-02-11T09:22:48.867Z,61.14
2023-02-11T09:25:41.255Z,60.88
2023-02-11T09:28:29.065Z,61.53
2023-02-11T09:31:22.298Z,60.82
2023-02-11T09:34:12.088Z,60.70
2023-02-11T09:36:59.744Z,60.78
2023-02-11T09:39:47.812Z,60.59
2023-02-11T09:43:02.353Z,60.97
2023-02-11T09:45:55.821Z,61.64
2023-02-11T09:48:47.994Z,61.84
2023-02-11T09:51:49.869Z,61.66
2023-02-11T09:55:05.119Z,62.31
2023-02-11T09:57:53.853Z,62.15
2023-02-11T10:00:57.300Z,62.17
2023-02-11T10:03:51.198Z,62.04
2023-02-11T10:06:45.307Z,61.56
2023-02-11T10:09:35.609Z,61.01
2023-02-11T10:12:38.941Z,60.93
2023-02-11T10:15:52.308Z,61.43
2023-02-11T10:19:11.363Z,61.34
2023-02-11T10:22:25.751Z,60.84
2023-02-11T10:25:21.459Z,60.72
2023-02-11T10:28:20.179Z,60.90
2023-02-11T10:31:23.186Z,60.98
2023-02-11T10:34:13.726Z,60.96
2023-02-11T10:37:01.536Z,61.05
2023-02-11T10:39:49.437Z,61.48
2023-02-11T10:42:37.560Z,61.73
2023-02-11T10:45:45.064Z,61.16
2023-02-11T10:48:43.183Z,61.69
2023-02-11T10:51:34.307Z,61.58
2023-02-11T10:54:24.439Z,61.69
2023-02-11T10:57:20.189Z,61.38
2023-02-11T11:00:38.093Z,60.82
2023-02-11T11:03:32.390Z,60.90
2023-02-11T11:06:33.025Z,60.88
2023-02-11T11:09:43.559Z,61.44
2023-02-11T11:12:45.629Z,60.76
2023-02-11T11:15:33.514Z,60.87
2023-02-11T11:18:23.219Z,61.25
2023-02-11T11:21:24.629Z,60.78
2023-02-11T11:24:24.555Z,60.64
2023-02-11T11:27:24.900Z,60.49
2023-02-11T11:30:17.227Z,60.45
2023-02-11T11:33:05.422Z,60.52
2023-02-11T11:36:07.818Z,60.11
2023-02-11T11:39:00.961Z,60.66
2023-02-11T11:42:05.925Z,61.12
2023-02-11T11:45:10.266Z,60.72
2023-02-11T11:48:23.658Z,60.27
2023-02-11T11:51:12.801Z,59.74
2023-02-11T11:54:06.690Z,59.64
2023-02-11T11:57:04.011Z,59.77
2023-02-11T11:59:52.442Z,59.45
2023-02-11T12:03:00.433Z,61.24
2023-02-11T12:06:06.311Z,64.22
2023-02-11T12:09:41.691Z,63.24
2023-02-11T12:13:00.520Z,62.07
2023-02-11T12:16:31.452Z,61.50
2023-02-11T12:20:18.227Z,61.11
2023-02-11T12:23:30.770Z,60.41
2023-02-11T12:26:23.947Z,59.89
2023-02-11T12:30:00.513Z,60.02
2023-02-11T12:33:51.621Z,58.94
2023-02-11T12:36:55.444Z,61.54
2023-02-11T12:39:52.133Z,64.27
2023-02-11T12:43:17.952Z,62.50
2023-02-11T12:46:23.804Z,61.29
2023-02-11T12:49:23.143Z,60.55
2023-02-11T12:52:21.513Z,59.70
2023-02-11T12:55:24.520Z,59.12
2023-02-11T12:58:29.645Z,63.08
2023-02-11T13:01:34.143Z,63.39
2023-02-11T13:04:35.223Z,62.08
2023-02-11T13:07:31.270Z,60.87
2023-02-11T13:10:30.230Z,60.33
2023-02-11T13:13:39.352Z,60.11
2023-02-11T13:16:33.779Z,59.49
2023-02-11T13:19:42.597Z,61.06
2023-02-11T13:22:49.240Z,64.32
2023-02-11T13:25:49.222Z,62.39
2023-02-11T13:29:13.412Z,60.62
2023-02-11T13:32:14.629Z,59.20
2023-02-11T13:35:02.413Z,58.71
2023-02-11T13:37:50.389Z,62.44
2023-02-11T13:40:40.078Z,64.43
2023-02-11T13:43:29.630Z,62.46
2023-02-11T13:46:18.903Z,60.76
2023-02-11T13:49:20.160Z,59.94
2023-02-11T13:52:32.323Z,58.58
2023-02-11T13:55:24.503Z,60.64
2023-02-11T13:58:12.490Z,64.34
2023-02-11T14:01:00.608Z,62.92
2023-02-11T14:04:38.888Z,61.30
2023-02-11T14:07:51.601Z,60.01
2023-02-11T14:10:41.973Z,58.74
2023-02-11T14:13:56.753Z,60.78
2023-02-11T14:16:59.841Z,63.52
2023-02-11T14:19:49.506Z,62.33
2023-02-11T14:22:49.652Z,60.42
2023-02-11T14:25:40.887Z,59.48
2023-02-11T14:28:34.473Z,59.34
2023-02-11T14:31:43.022Z,61.39
2023-02-11T14:34:42.837Z,63.86
2023-02-11T14:37:39.699Z,62.11
2023-02-11T14:40:58.872Z,60.23
2023-02-11T14:43:55.157Z,58.79
2023-02-11T14:46:48.391Z,60.57
2023-02-11T14:49:40.649Z,63.84
2023-02-11T14:52:36.913Z,63.61
2023-02-11T14:55:29.394Z,61.81
2023-02-11T14:58:21.090Z,60.45
2023-02-11T15:01:41.638Z,59.92
2023-02-11T15:04:33.626Z,58.44
2023-02-11T15:07:22.428Z,60.85
2023-02-11T15:10:21.305Z,63.08
2023-02-11T15:13:16.687Z,64.45
2023-02-11T15:16:11.254Z,62.21
2023-02-11T15:19:07.534Z,60.86
2023-02-11T15:21:56.976Z,58.51
2023-02-11T15:24:45.114Z,58.92
2023-02-11T15:27:56.796Z,60.90
2023-02-11T15:30:44.944Z,65.48
2023-02-11T15:33:33.368Z,64.58
2023-02-11T15:36:28.904Z,62.50
2023-02-11T15:39:41.228Z,61.43
2023-02-11T15:42:40.794Z,59.96
2023-02-11T15:45:40.511Z,57.91
2023-02-11T15:48:47.632Z,59.92
2023-02-11T15:51:39.992Z,60.41
2023-02-11T15:54:34.409Z,64.43
2023-02-11T15:57:23.320Z,65.77
2023-02-11T16:00:28.702Z,63.70
2023-02-11T16:03:24.586Z,61.99
2023-02-11T16:06:35.964Z,60.61
2023-02-11T16:09:37.125Z,57.31
2023-02-11T16:12:30.315Z,57.36
2023-02-11T16:15:46.912Z,61.77
2023-02-11T16:19:03.282Z,64.55
2023-02-11T16:21:53.589Z,63.19
2023-02-11T16:24:42.091Z,61.24
2023-02-11T16:27:42.204Z,60.13
2023-02-11T16:30:40.625Z,58.02
2023-02-11T16:33:28.903Z,58.80
2023-02-11T16:36:17.429Z,61.76
2023-02-11T16:39:05.796Z,64.32
2023-02-11T16:41:53.743Z,62.50
2023-02-11T16:44:41.772Z,60.87
2023-02-11T16:47:31.316Z,60.05
2023-02-11T16:50:25.334Z,58.11
2023-02-11T16:53:18.737Z,57.04
2023-02-11T16:56:06.936Z,59.59
2023-02-11T16:58:55.105Z,63.59
2023-02-11T17:01:44.628Z,64.54
2023-02-11T17:04:33.774Z,62.95
2023-02-11T17:07:22.166Z,60.77
2023-02-11T17:10:20.692Z,59.97
2023-02-11T17:13:08.986Z,57.89
2023-02-11T17:15:57.024Z,60.29
2023-02-11T17:18:45.549Z,63.56
2023-02-11T17:21:34.030Z,63.12
2023-02-11T17:24:22.937Z,61.29
2023-02-11T17:27:12.207Z,59.21
2023-02-11T17:30:00.198Z,60.06
2023-02-11T17:32:48.148Z,62.63
2023-02-11T17:35:40.644Z,64.26
2023-02-11T17:38:28.433Z,62.12
2023-02-11T17:41:17.114Z,60.95
2023-02-11T17:44:07.502Z,59.38
2023-02-11T17:46:56.842Z,59.77
2023-02-11T17:49:44.784Z,61.94
2023-02-11T17:52:32.737Z,63.28
2023-02-11T17:55:20.538Z,61.17
2023-02-11T17:58:08.534Z,59.83
2023-02-11T18:00:59.236Z,58.76
2023-02-11T18:03:47.432Z,58.85
2023-02-11T18:06:35.630Z,62.96
2023-02-11T18:09:25.020Z,62.84
2023-02-11T18:12:13.139Z,60.81
2023-02-11T18:15:01.318Z,59.10
2023-02-11T18:17:49.295Z,58.68
2023-02-11T18:20:37.587Z,59.51
2023-02-11T18:23:26.629Z,63.23
2023-02-11T18:26:17.976Z,63.49
2023-02-11T18:29:07.117Z,60.88
2023-02-11T18:31:57.359Z,58.25
2023-02-11T18:34:45.413Z,59.96
2023-02-11T18:37:34.906Z,62.66
2023-02-11T18:40:22.934Z,63.58
2023-02-11T18:43:10.873Z,61.45
2023-02-11T18:45:59.457Z,59.29
2023-02-11T18:48:47.400Z,57.89
2023-02-11T18:51:38.041Z,59.77
2023-02-11T18:54:26.016Z,63.30
2023-02-11T18:57:13.891Z,64.04
2023-02-11T19:00:02.139Z,62.19
2023-02-11T19:02:50.467Z,58.95
2023-02-11T19:05:48.608Z,57.00
2023-02-11T19:08:36.590Z,58.42
2023-02-11T19:11:45.129Z,59.39
2023-02-11T19:14:34.535Z,64.12
2023-02-11T19:17:22.600Z,65.64
2023-02-11T19:20:11.182Z,62.89
2023-02-11T19:23:00.850Z,61.39
2023-02-11T19:25:49.302Z,58.80
2023-02-11T19:28:37.825Z,59.51
2023-02-11T19:31:26.634Z,60.07
2023-02-11T19:34:16.890Z,62.09
2023-02-11T19:37:05.019Z,64.05
2023-02-11T19:39:54.627Z,62.49
2023-02-11T19:42:43.127Z,61.79
2023-02-11T19:45:30.806Z,60.19
2023-02-11T19:48:18.831Z,57.73
2023-02-11T19:51:13.197Z,57.01
2023-02-11T19:54:01.365Z,57.92
2023-02-11T19:56:49.751Z,63.82
2023-02-11T19:59:37.644Z,64.17
2023-02-11T20:02:25.746Z,63.84
2023-02-11T20:05:13.863Z,61.75
2023-02-11T20:08:01.745Z,60.88
2023-02-11T20:10:50.164Z,58.80
2023-02-11T20:13:39.384Z,57.23
2023-02-11T20:16:46.039Z,59.12
2023-02-11T20:19:36.142Z,60.23
2023-02-11T20:22:24.063Z,64.66
2023-02-11T20:25:11.971Z,64.72
2023-02-11T20:28:00.213Z,63.95
2023-02-11T20:30:59.538Z,62.39
2023-02-11T20:33:48.751Z,61.07
2023-02-11T20:36:38.757Z,57.59
2023-02-11T20:39:27.543Z,56.24
2023-02-11T20:42:15.744Z,59.97
2023-02-11T20:45:03.955Z,61.56
2023-02-11T20:47:51.761Z,65.33
2023-02-11T20:50:40.104Z,64.90
2023-02-11T20:53:28.803Z,61.89
2023-02-11T20:56:23.709Z,59.17
2023-02-11T20:59:14.059Z,59.84
2023-02-11T21:02:02.352Z,60.18
2023-02-11T21:04:50.191Z,63.33
2023-02-11T21:07:39.206Z,64.19
2023-02-11T21:10:27.541Z,61.36
2023-02-11T21:13:15.972Z,59.51
2023-02-11T21:16:04.391Z,57.23
2023-02-11T21:18:52.729Z,59.02
2023-02-11T21:21:41.270Z,60.36
2023-02-11T21:24:30.971Z,61.58
2023-02-11T21:27:19.183Z,63.41
2023-02-11T21:30:08.376Z,64.72
2023-02-11T21:32:59.212Z,63.21
2023-02-11T21:35:47.023Z,60.53
2023-02-11T21:38:35.946Z,55.88
2023-02-11T21:41:24.989Z,55.39
2023-02-11T21:44:13.011Z,57.45
2023-02-11T21:47:01.281Z,58.74
2023-02-11T21:49:48.958Z,61.57
2023-02-11T21:52:37.058Z,60.31
2023-02-11T21:55:25.215Z,61.98
2023-02-11T21:58:14.112Z,66.28
2023-02-11T22:01:02.689Z,66.12
2023-02-11T22:03:50.997Z,63.64
2023-02-11T22:06:39.227Z,60.90
2023-02-11T22:09:27.099Z,57.72
2023-02-11T22:12:15.201Z,55.93
2023-02-11T22:15:03.084Z,57.33
2023-02-11T22:17:50.973Z,58.00
2023-02-11T22:20:39.072Z,59.50
2023-02-11T22:23:27.983Z,62.77
2023-02-11T22:26:21.945Z,65.76
2023-02-11T22:29:10.859Z,65.37
2023-02-11T22:31:59.059Z,62.98
2023-02-11T22:34:46.933Z,60.50
2023-02-11T22:37:34.609Z,57.77
2023-02-11T22:40:23.495Z,55.81
2023-02-11T22:43:11.273Z,57.52
2023-02-11T22:46:04.889Z,59.30
2023-02-11T22:48:53.477Z,61.24
2023-02-11T22:51:41.783Z,64.11
2023-02-11T22:54:29.483Z,66.21
2023-02-11T22:57:17.340Z,64.03
2023-02-11T23:00:10.155Z,62.02
2023-02-11T23:02:58.183Z,60.56
2023-02-11T23:05:46.085Z,57.05
2023-02-11T23:08:35.259Z,55.59
2023-02-11T23:11:28.947Z,56.67
2023-02-11T23:14:16.626Z,57.96
2023-02-11T23:17:04.770Z,60.01
2023-02-11T23:19:52.803Z,63.07
2023-02-11T23:22:40.941Z,65.42
2023-02-11T23:25:29.262Z,64.95
2023-02-11T23:28:17.578Z,61.96
2023-02-11T23:31:26.203Z,59.84
2023-02-11T23:34:23.901Z,55.46
2023-02-11T23:37:12.058Z,54.80
2023-02-11T23:40:00.043Z,56.03
2023-02-11T23:42:49.174Z,59.05
2023-02-11T23:45:37.515Z,59.22
2023-02-11T23:48:26.497Z,60.53
2023-02-11T23:51:14.672Z,64.33
2023-02-11T23:54:03.295Z,67.07
2023-02-11T23:56:50.920Z,65.75
2023-02-11T23:59:39.048Z,63.38
